Time;durP1;ratioP1;P1;durP2;ratioP2;P2;SDS_P1;SDS_P2;PMS_P1;PMS_P2;Temp;Humidity;BMP_temperature;BMP_pressure;BME280_temperature;BME280_humidity;BME280_pressure;Samples;Min_cycle;Max_cycle;Signal;HPM_P1;HPM_P2
2023/11/12 08:30:01;;;;;;;4.13;2.40;;;;;;;;;;2084451;28;21097;-69
2023/11/12 08:31:02;;;;;;;5.35;2.10;;;;;;;;;;2083447;28;20683;-68
2023/11/12 08:33:09;;;;;;;6.28;2.85;;;;;;;;;;2106553;27;21132;-69
2023/11/12 08:34:33;;;;;;;5.53;1.83;;;;;;;;;;2083112;28;20570;-70
2023/11/12 08:35:34;;;;;;;4.88;2.22;;;;;;;;;;2082449;28;20193;-69
2023/11/12 08:36:36;;;;;;;8.95;2.55;;;;;;;;;;2081439;28;20287;-69
2023/11/12 08:38:34;;;;;;;6.15;2.33;;;;;;;;;;2101932;27;20553;-69
2023/11/12 08:39:36;;;;;;;4.10;2.50;;;;;;;;;;2099111;28;20193;-70
2023/11/12 08:40:41;;;;;;;5.57;1.80;;;;;;;;;;2094958;28;20202;-65
2023/11/12 08:41:46;;;;;;;5.97;1.70;;;;;;;;;;2098581;28;20315;-65
2023/11/12 08:42:48;;;;;;;6.50;1.85;;;;;;;;;;2099203;28;20194;-66
2023/11/12 08:43:49;;;;;;;5.78;2.08;;;;;;;;;;2094004;28;20221;-65
2023/11/12 08:44:52;;;;;;;5.90;1.70;;;;;;;;;;2100118;28;20220;-66
2023/11/12 08:45:54;;;;;;;6.15;1.83;;;;;;;;;;2098744;28;20897;-66
2023/11/12 08:46:55;;;;;;;5.72;2.17;;;;;;;;;;2096532;28;20202;-66
2023/11/12 08:47:57;;;;;;;4.15;1.60;;;;;;;;;;2096062;28;20213;-66
2023/11/12 08:48:59;;;;;;;6.85;2.42;;;;;;;;;;2095983;28;20211;-65
2023/11/12 08:50:00;;;;;;;3.22;1.60;;;;;;;;;;2096443;28;20240;-66
2023/11/12 08:51:02;;;;;;;5.97;1.80;;;;;;;;;;2094744;28;20195;-65
2023/11/12 08:52:04;;;;;;;5.97;1.65;;;;;;;;;;2094676;28;20192;-65
2023/11/12 08:53:05;;;;;;;5.85;1.33;;;;;;;;;;2096908;28;20900;-65
2023/11/12 08:54:09;;;;;;;3.25;1.30;;;;;;;;;;2098161;28;20630;-66
2023/11/12 08:55:11;;;;;;;3.17;1.30;;;;;;;;;;2098520;28;20836;-65
2023/11/12 08:56:14;;;;;;;4.35;1.52;;;;;;;;;;2100684;28;20195;-65
2023/11/12 08:57:16;;;;;;;2.70;1.40;;;;;;;;;;2097957;28;20670;-65
2023/11/12 08:58:20;;;;;;;6.15;1.75;;;;;;;;;;2096344;28;20211;-65
2023/11/12 08:59:22;;;;;;;7.13;1.73;;;;;;;;;;2097679;28;20203;-65
2023/11/12 09:00:23;;;;;;;4.07;1.98;;;;;;;;;;2097292;28;20241;-65
2023/11/12 09:01:25;;;;;;;3.28;1.48;;;;;;;;;;2099009;28;20224;-65
2023/11/12 09:02:27;;;;;;;7.47;1.63;;;;;;;;;;2098227;28;20528;-66
2023/11/12 09:03:30;;;;;;;6.18;2.10;;;;;;;;;;2093494;28;20268;-65
2023/11/12 09:04:31;;;;;;;6.43;1.85;;;;;;;;;;2097198;28;20203;-64
2023/11/12 09:05:35;;;;;;;4.38;1.75;;;;;;;;;;2107211;28;20657;-65
2023/11/12 09:06:37;;;;;;;10.75;4.68;;;;;;;;;;2106485;28;20228;-63
2023/11/12 09:07:38;;;;;;;9.73;5.32;;;;;;;;;;2099934;28;20188;-64
2023/11/12 09:08:40;;;;;;;5.88;2.10;;;;;;;;;;2097771;28;20222;-66
2023/11/12 09:09:41;;;;;;;4.88;1.73;;;;;;;;;;2097829;28;20568;-64
2023/11/12 09:10:42;;;;;;;11.35;1.95;;;;;;;;;;2097339;28;20555;-64
2023/11/12 09:11:44;;;;;;;7.72;1.73;;;;;;;;;;2097559;28;20257;-64
2023/11/12 09:12:45;;;;;;;5.32;2.10;;;;;;;;;;2097196;28;20184;-64
2023/11/12 09:13:47;;;;;;;4.55;1.73;;;;;;;;;;2096812;28;20223;-64
2023/11/12 09:14:49;;;;;;;3.83;1.80;;;;;;;;;;2096516;28;20261;-64
2023/11/12 09:15:50;;;;;;;3.35;1.90;;;;;;;;;;2097581;28;20234;-64
2023/11/12 09:16:52;;;;;;;4.00;1.73;;;;;;;;;;2098079;28;20718;-64
2023/11/12 09:17:54;;;;;;;9.18;1.80;;;;;;;;;;2097520;28;20278;-64
2023/11/12 09:18:55;;;;;;;5.13;2.00;;;;;;;;;;2093217;28;20302;-64
2023/11/12 09:19:57;;;;;;;3.47;1.70;;;;;;;;;;2095672;28;20809;-66
2023/11/12 09:20:58;;;;;;;4.80;1.90;;;;;;;;;;2097353;28;20191;-65
2023/11/12 09:21:59;;;;;;;3.75;1.50;;;;;;;;;;2100557;28;20290;-65
2023/11/12 09:23:01;;;;;;;3.20;1.88;;;;;;;;;;2097900;28;20667;-65
2023/11/12 09:24:03;;;;;;;4.68;1.70;;;;;;;;;;2097365;28;20890;-65
2023/11/12 09:25:05;;;;;;;3.70;1.50;;;;;;;;;;2098438;28;20210;-66
2023/11/12 09:26:22;;;;;;;6.30;2.55;;;;;;;;;;2098186;28;20231;-65
2023/11/12 09:27:24;;;;;;;5.05;2.15;;;;;;;;;;2091595;28;20329;-65
2023/11/12 09:28:26;;;;;;;3.42;1.88;;;;;;;;;;2090756;28;20200;-64
2023/11/12 09:29:28;;;;;;;4.57;2.13;;;;;;;;;;2096531;28;20273;-64
2023/11/12 09:30:33;;;;;;;9.85;2.28;;;;;;;;;;2098525;28;20208;-64
2023/11/12 09:31:54;;;;;;;5.80;2.00;;;;;;;;;;2098747;28;20807;-64
2023/11/12 09:32:55;;;;;;;5.43;2.35;;;;;;;;;;2098385;28;20244;-65
2023/11/12 09:33:57;;;;;;;6.95;4.10;;;;;;;;;;2094042;28;20836;-67
2023/11/12 09:34:59;;;;;;;10.30;3.85;;;;;;;;;;2097111;28;20196;-66
2023/11/12 09:36:00;;;;;;;5.93;1.70;;;;;;;;;;2098984;28;20195;-67
2023/11/12 09:37:03;;;;;;;6.68;3.80;;;;;;;;;;2099132;28;20247;-68
2023/11/12 09:38:05;;;;;;;6.55;2.47;;;;;;;;;;2097876;28;20232;-68
2023/11/12 09:39:07;;;;;;;7.00;2.50;;;;;;;;;;2097672;28;20219;-68
2023/11/12 09:40:10;;;;;;;4.82;2.70;;;;;;;;;;2097578;28;20214;-68
2023/11/12 09:41:13;;;;;;;8.43;2.40;;;;;;;;;;2096755;28;20235;-68
2023/11/12 09:42:19;;;;;;;13.40;2.60;;;;;;;;;;2096214;28;20278;-68
2023/11/12 09:43:25;;;;;;;6.65;2.35;;;;;;;;;;2093424;28;20237;-68
2023/11/12 09:44:29;;;;;;;6.38;2.40;;;;;;;;;;2095933;28;20192;-68
2023/11/12 09:45:33;;;;;;;4.25;1.80;;;;;;;;;;2100512;28;21030;-68
2023/11/12 09:46:35;;;;;;;12.05;2.80;;;;;;;;;;2097578;28;20275;-68
2023/11/12 09:47:58;;;;;;;3.58;2.20;;;;;;;;;;2099500;28;20192;-68
2023/11/12 09:49:00;;;;;;;6.05;2.60;;;;;;;;;;2093782;28;20223;-70
2023/11/12 09:50:04;;;;;;;5.43;2.47;;;;;;;;;;2090082;28;20192;-70
2023/11/12 09:51:06;;;;;;;5.55;2.58;;;;;;;;;;2093244;28;20283;-70
2023/11/12 09:52:07;;;;;;;7.55;3.00;;;;;;;;;;2092154;28;20219;-70
2023/11/12 09:53:15;;;;;;;4.65;2.28;;;;;;;;;;2090028;28;20204;-69
2023/11/12 09:54:17;;;;;;;8.30;2.10;;;;;;;;;;2088117;28;20208;-69
2023/11/12 09:55:20;;;;;;;3.92;2.17;;;;;;;;;;2091759;28;20221;-66
2023/11/12 09:56:24;;;;;;;5.20;1.95;;;;;;;;;;2092413;28;20548;-70
2023/11/12 09:57:25;;;;;;;8.68;2.35;;;;;;;;;;2093686;28;20265;-69
2023/11/12 09:58:27;;;;;;;6.55;2.80;;;;;;;;;;2090288;28;20533;-69
2023/11/12 09:59:29;;;;;;;4.35;2.25;;;;;;;;;;2091122;28;20199;-68
2023/11/12 10:00:35;;;;;;;6.97;2.70;;;;;;;;;;2091559;28;20216;-68
2023/11/12 10:01:36;;;;;;;5.22;2.70;;;;;;;;;;2088821;28;20201;-69
2023/11/12 10:02:38;;;;;;;4.35;2.40;;;;;;;;;;2092752;28;20203;-68
2023/11/12 10:03:43;;;;;;;4.47;1.90;;;;;;;;;;2089459;28;20220;-68
2023/11/12 10:04:55;;;;;;;5.97;2.35;;;;;;;;;;2089625;28;20199;-69
2023/11/12 10:05:56;;;;;;;6.22;2.97;;;;;;;;;;2100891;28;20278;-68
2023/11/12 10:06:58;;;;;;;5.95;2.55;;;;;;;;;;2100081;28;20196;-69
2023/11/12 10:08:00;;;;;;;7.45;2.60;;;;;;;;;;2092283;28;20220;-68
2023/11/12 10:09:01;;;;;;;5.63;3.10;;;;;;;;;;2089949;28;20217;-68
2023/11/12 10:10:21;;;;;;;7.47;2.75;;;;;;;;;;2090805;28;20207;-68
2023/11/12 10:11:23;;;;;;;12.88;2.60;;;;;;;;;;2092276;28;20676;-68
2023/11/12 10:12:25;;;;;;;6.07;2.75;;;;;;;;;;2092278;28;20269;-68
2023/11/12 10:13:35;;;;;;;6.63;3.25;;;;;;;;;;2091602;28;20234;-68
2023/11/12 10:14:36;;;;;;;6.05;2.47;;;;;;;;;;2094783;28;20196;-67
2023/11/12 10:15:37;;;;;;;9.02;2.60;;;;;;;;;;2089455;28;20257;-68
2023/11/12 10:16:39;;;;;;;8.90;2.95;;;;;;;;;;2089472;28;20901;-67
2023/11/12 10:17:44;;;;;;;5.07;2.95;;;;;;;;;;2089744;28;20193;-68
2023/11/12 10:18:46;;;;;;;5.53;3.22;;;;;;;;;;2093125;28;20223;-68
2023/11/12 10:19:54;;;;;;;6.00;2.55;;;;;;;;;;2093068;28;20499;-68
2023/11/12 10:21:05;;;;;;;4.50;2.58;;;;;;;;;;2097314;28;20188;-67
2023/11/12 10:22:07;;;;;;;5.50;2.85;;;;;;;;;;2094739;28;20620;-67
2023/11/12 10:23:19;;;;;;;5.70;2.85;;;;;;;;;;2086988;28;20656;-68
2023/11/12 10:24:46;;;;;;;7.07;3.20;;;;;;;;;;2086567;28;20281;-68
2023/11/12 10:28:47;;;;;;;4.85;2.65;;;;;;;4.80;85.99;95758.31;2084083;28;21127;-66
2023/11/12 10:32:37;;;;;;;5.40;2.97;;;;;;;4.78;85.78;95760.94;2084227;28;20591;-67
2023/11/12 10:36:17;;;;;;;5.95;2.90;;;;;;;4.55;86.69;95766.94;2100639;27;20554;-68
2023/11/12 10:39:57;;;;;;;6.68;3.08;;;;;;;4.53;87.11;95756.66;2079629;27;20569;-67
2023/11/12 10:43:31;;;;;;;4.20;2.60;;;;;;;4.73;87.01;95753.34;2081699;28;20556;-67
2023/11/12 10:47:10;;;;;;;4.60;2.88;;;;;;;4.61;86.91;95740.88;2083770;28;21111;-68
2023/11/12 11:15:52;;;;;;;7.47;1.98;;;;;;;5.11;85.64;95739.09;2089974;28;20927;-69
2023/11/12 11:18:32;;;;;;;5.43;2.20;;;;;;;5.12;85.78;95739.03;2092506;27;20574;-68
2023/11/12 11:21:17;;;;;;;6.75;2.40;;;;;;;5.26;85.96;95735.91;2091914;27;20577;-68
2023/11/12 11:22:23;;;;;;;5.50;3.13;;;;;;;5.17;85.16;95744.03;2088685;28;20190;-69
2023/11/12 11:24:45;;;;;;;4.88;2.47;;;;;;;5.16;86.34;95737.16;2096953;27;20569;-69
2023/11/12 11:25:47;;;;;;;4.68;2.50;;;;;;;5.38;85.74;95740.63;2089068;28;20189;-69
2023/11/12 11:28:19;;;;;;;10.65;2.60;;;;;;;5.35;84.63;95735.53;2083780;28;20554;-69
2023/11/12 11:30:24;;;;;;;4.75;2.30;;;;;;;5.44;84.48;95736.94;2100952;27;21138;-69
2023/11/12 11:32:28;;;;;;;5.75;2.60;;;;;;;5.30;84.58;95731.47;2083950;28;20552;-69
2023/11/12 11:57:46;;;;;;;4.10;1.95;;;;;;;5.31;84.78;95741.75;2124600;27;20532;-67
2023/11/12 11:59:57;;;;;;;7.45;3.55;;;;;;;5.38;85.51;95740.63;2080966;28;20580;-68
2023/11/12 12:00:59;;;;;;;7.35;3.13;;;;;;;5.52;85.46;95739.22;2078620;28;20645;-68
2023/11/12 12:02:01;;;;;;;9.55;2.45;;;;;;;5.62;84.10;95732.78;2079060;28;20193;-68
2023/11/12 12:03:17;;;;;;;7.63;3.30;;;;;;;5.72;83.88;95725.50;2080989;28;20223;-68
2023/11/12 12:04:19;;;;;;;7.25;3.50;;;;;;;5.85;82.85;95725.84;2077978;28;20688;-67
2023/11/12 12:05:33;;;;;;;5.25;2.83;;;;;;;5.85;82.68;95726.69;2079431;28;20653;-67
2023/11/12 12:06:41;;;;;;;5.95;2.28;;;;;;;6.07;83.22;95728.44;2082304;28;20559;-67
2023/11/12 12:07:45;;;;;;;3.80;2.15;;;;;;;6.00;82.23;95733.00;2082421;28;20207;-67
2023/11/12 12:08:52;;;;;;;4.70;2.30;;;;;;;5.99;81.70;95730.50;2081917;28;20197;-68
2023/11/12 12:09:55;;;;;;;5.30;2.97;;;;;;;6.12;81.36;95728.22;2082123;28;20224;-69
2023/11/12 12:11:15;;;;;;;7.55;2.22;;;;;;;6.19;80.93;95727.06;2081976;28;20644;-69
2023/11/12 12:12:17;;;;;;;5.28;2.53;;;;;;;6.34;80.65;95728.19;2082265;28;20199;-69
2023/11/12 12:13:20;;;;;;;9.32;2.50;;;;;;;6.34;80.61;95728.19;2081378;28;20271;-69
2023/11/12 12:14:24;;;;;;;5.82;2.55;;;;;;;6.43;79.59;95738.16;2079396;28;20208;-68
2023/11/12 12:15:26;;;;;;;5.18;2.35;;;;;;;6.44;79.79;95733.84;2080498;28;20218;-69
2023/11/12 12:16:28;;;;;;;2.97;1.92;;;;;;;6.33;79.08;95729.91;2081443;28;20197;-68
2023/11/12 12:17:37;;;;;;;4.75;2.85;;;;;;;6.34;80.19;95734.22;2081685;28;20761;-69
2023/11/12 12:18:41;;;;;;;4.55;2.15;;;;;;;6.23;80.11;95739.00;2081776;28;20203;-69
2023/11/12 12:19:43;;;;;;;4.97;2.15;;;;;;;6.09;80.59;95741.34;2078945;28;20251;-68
2023/11/12 12:20:44;;;;;;;5.57;2.63;;;;;;;6.13;80.77;95741.16;2081314;28;20201;-68
2023/11/12 12:21:52;;;;;;;4.80;2.85;;;;;;;6.06;81.05;95750.06;2078167;28;20201;-69
2023/11/12 12:22:54;;;;;;;6.95;2.25;;;;;;;6.03;81.66;95747.59;2082329;28;20659;-68
2023/11/12 12:23:56;;;;;;;5.90;2.20;;;;;;;6.03;81.62;95747.59;2081643;28;20644;-69
2023/11/12 12:24:58;;;;;;;4.18;2.25;;;;;;;6.03;81.53;95753.63;2081702;28;20626;-69
2023/11/12 12:26:00;;;;;;;3.30;1.80;;;;;;;5.96;81.21;95743.56;2082059;28;20788;-68
2023/11/12 12:27:09;;;;;;;5.00;2.35;;;;;;;6.06;81.57;95742.31;2082858;28;20540;-69
2023/11/12 12:28:11;;;;;;;4.32;2.08;;;;;;;6.04;81.22;95746.69;2081934;28;20259;-69
2023/11/12 12:29:15;;;;;;;5.47;2.20;;;;;;;6.15;81.21;95754.03;2081760;28;20227;-68
2023/11/12 12:30:17;;;;;;;5.10;2.55;;;;;;;6.26;81.50;95748.41;2082615;28;20783;-69
2023/11/12 12:31:19;;;;;;;5.53;3.05;;;;;;;6.30;81.32;95747.38;2079891;28;20200;-68
2023/11/12 12:32:21;;;;;;;3.88;1.90;;;;;;;6.16;81.24;95746.19;2080758;28;20592;-69
2023/11/12 12:33:25;;;;;;;6.90;2.63;;;;;;;6.16;81.42;95746.19;2078356;28;20284;-69
2023/11/12 12:34:39;;;;;;;5.13;2.38;;;;;;;6.08;81.66;95752.59;2081337;28;20389;-69
2023/11/12 12:35:40;;;;;;;4.43;2.63;;;;;;;6.07;81.44;95740.53;2081974;28;20211;-68
2023/11/12 12:37:07;;;;;;;4.82;2.35;;;;;;;6.03;81.40;95742.41;2081273;28;20239;-69
2023/11/12 12:38:09;;;;;;;5.07;2.47;;;;;;;5.92;82.20;95741.97;2080526;28;20264;-69
2023/11/12 12:39:10;;;;;;;4.35;1.98;;;;;;;5.89;82.27;95738.63;2081088;28;20669;-68
